createdAt,value
2022-09-01T00:02:20.426Z,15.30
2022-09-01T00:04:47.648Z,15.20
2022-09-01T00:07:14.488Z,15.20
2022-09-01T00:09:41.633Z,15.20
2022-09-01T00:12:09.305Z,15.20
2022-09-01T00:14:40.967Z,15.20
2022-09-01T00:17:09.615Z,15.20
2022-09-01T00:19:36.398Z,15.10
2022-09-01T00:22:03.772Z,15.10
2022-09-01T00:24:30.504Z,15.10
2022-09-01T00:26:57.401Z,15.10
2022-09-01T00:29:25.196Z,15.00
2022-09-01T00:31:52.503Z,15.00
2022-09-01T00:34:19.202Z,15.00
2022-09-01T00:36:45.967Z,15.00
2022-09-01T00:39:13.694Z,14.90
2022-09-01T00:41:42.852Z,14.90
2022-09-01T00:44:12.164Z,15.00
2022-09-01T00:46:49.534Z,14.90
2022-09-01T00:49:20.005Z,14.90
2022-09-01T00:51:49.063Z,14.90
2022-09-01T00:54:18.575Z,14.90
2022-09-01T00:56:46.570Z,14.90
2022-09-01T00:59:16.277Z,14.90
2022-09-01T01:01:43.016Z,14.90
2022-09-01T01:04:14.943Z,14.90
2022-09-01T01:06:49.766Z,14.90
2022-09-01T01:09:18.131Z,14.80
2022-09-01T01:11:47.540Z,14.80
2022-09-01T01:14:17.308Z,14.80
2022-09-01T01:16:45.382Z,14.80
2022-09-01T01:19:39.006Z,14.80
2022-09-01T01:22:26.601Z,14.80
2022-09-01T01:24:53.351Z,14.80
2022-09-01T01:27:21.865Z,14.80
2022-09-01T01:29:52.185Z,14.80
2022-09-01T01:32:19.486Z,14.80
2022-09-01T01:34:48.748Z,14.80
2022-09-01T01:37:15.598Z,14.80
2022-09-01T01:39:44.299Z,14.80
2022-09-01T01:42:12.384Z,14.80
2022-09-01T01:44:39.752Z,14.80
2022-09-01T01:47:08.463Z,14.80
2022-09-01T01:49:35.928Z,14.70
2022-09-01T01:52:02.963Z,14.80
2022-09-01T01:54:33.012Z,14.80
2022-09-01T01:57:00.359Z,14.80
2022-09-01T01:59:29.636Z,14.80
2022-09-01T02:01:56.820Z,14.80
2022-09-01T02:04:23.531Z,14.80
2022-09-01T02:06:52.023Z,14.80
2022-09-01T02:09:20.343Z,14.80
2022-09-01T02:11:46.981Z,14.80
2022-09-01T02:14:14.758Z,14.80
2022-09-01T02:16:41.606Z,14.70
2022-09-01T02:19:10.011Z,14.70
2022-09-01T02:21:36.818Z,14.70
2022-09-01T02:24:05.910Z,14.70
2022-09-01T02:26:45.843Z,14.80
2022-09-01T02:29:18.054Z,14.70
2022-09-01T02:31:46.309Z,14.80
2022-09-01T02:34:14.122Z,14.80
2022-09-01T02:36:47.536Z,14.80
2022-09-01T02:39:15.248Z,14.80
2022-09-01T02:41:41.992Z,14.80
2022-09-01T02:44:11.699Z,14.80
2022-09-01T02:46:41.864Z,14.70
2022-09-01T02:49:17.502Z,14.70
2022-09-01T02:51:45.152Z,14.60
2022-09-01T02:54:16.597Z,14.60
2022-09-01T02:56:46.398Z,14.50
2022-09-01T02:59:13.192Z,14.50
2022-09-01T03:01:40.262Z,14.40
2022-09-01T03:04:10.354Z,14.40
2022-09-01T03:06:37.937Z,14.30
2022-09-01T03:09:06.318Z,14.20
2022-09-01T03:11:35.004Z,14.20
2022-09-01T03:14:01.830Z,14.10
2022-09-01T03:16:30.551Z,14.10
2022-09-01T03:18:57.516Z,14.10
2022-09-01T03:21:24.439Z,14.00
2022-09-01T03:23:52.657Z,14.00
2022-09-01T03:26:22.042Z,14.00
2022-09-01T03:28:50.298Z,13.90
2022-09-01T03:31:18.235Z,13.90
2022-09-01T03:33:44.967Z,13.90
2022-09-01T03:36:19.224Z,13.90
2022-09-01T03:38:48.702Z,13.90
2022-09-01T03:41:17.821Z,13.90
2022-09-01T03:43:46.899Z,13.90
2022-09-01T03:46:20.239Z,13.90
2022-09-01T03:48:50.267Z,13.90
2022-09-01T03:51:17.543Z,13.90
2022-09-01T03:53:46.053Z,13.90
2022-09-01T03:56:15.179Z,13.90
2022-09-01T03:58:47.275Z,13.90
2022-09-01T04:01:14.442Z,13.90
2022-09-01T04:03:41.649Z,14.00
2022-09-01T04:06:09.376Z,14.00
2022-09-01T04:08:36.972Z,14.00
2022-09-01T04:11:05.611Z,14.00
2022-09-01T04:13:35.066Z,14.00
2022-09-01T04:16:02.150Z,14.00
2022-09-01T04:18:30.238Z,14.00
2022-09-01T04:20:58.141Z,14.00
2022-09-01T04:23:34.014Z,14.00
2022-09-01T04:26:11.363Z,14.00
2022-09-01T04:28:39.639Z,13.90
2022-09-01T04:31:09.178Z,13.90
2022-09-01T04:33:39.678Z,13.90
2022-09-01T04:36:13.407Z,13.90
2022-09-01T04:38:40.054Z,13.80
2022-09-01T04:41:07.160Z,13.80
2022-09-01T04:43:34.516Z,13.80
2022-09-01T04:46:01.552Z,13.80
2022-09-01T04:48:28.473Z,13.70
2022-09-01T04:50:56.783Z,13.70
2022-09-01T04:53:24.995Z,13.70
2022-09-01T04:55:55.391Z,13.70
2022-09-01T04:58:22.431Z,13.70
2022-09-01T05:00:53.503Z,13.70
2022-09-01T05:03:23.463Z,13.70
2022-09-01T05:05:50.134Z,13.70
2022-09-01T05:08:23.642Z,13.80
2022-09-01T05:10:53.299Z,13.80
2022-09-01T05:13:22.686Z,13.80
2022-09-01T05:16:00.096Z,13.90
2022-09-01T05:18:28.063Z,13.90
2022-09-01T05:20:54.973Z,14.00
2022-09-01T05:23:21.651Z,14.00
2022-09-01T05:25:49.714Z,14.20
2022-09-01T05:28:19.064Z,14.30
2022-09-01T05:30:47.345Z,14.50
2022-09-01T05:33:21.147Z,14.80
2022-09-01T05:36:02.046Z,15.00
2022-09-01T05:38:31.296Z,15.20
2022-09-01T05:41:02.047Z,15.40
2022-09-01T05:43:30.696Z,15.50
2022-09-01T05:46:06.589Z,15.60
2022-09-01T05:48:36.181Z,15.70
2022-09-01T05:51:17.627Z,15.70
2022-09-01T05:53:58.775Z,15.90
2022-09-01T05:56:26.956Z,16.30
2022-09-01T06:01:43.877Z,17.10
2022-09-01T06:04:13.750Z,17.50
2022-09-01T06:07:04.110Z,17.80
2022-09-01T06:09:33.090Z,18.40
2022-09-01T06:11:59.757Z,18.70
2022-09-01T06:14:26.412Z,18.90
2022-09-01T06:16:54.168Z,18.90
2022-09-01T06:19:20.868Z,18.90
2022-09-01T06:21:48.596Z,18.80
2022-09-01T06:24:15.319Z,18.60
2022-09-01T06:26:42.256Z,18.40
2022-09-01T06:29:10.448Z,18.30
2022-09-01T06:31:39.346Z,18.20
2022-09-01T06:34:08.510Z,18.00
2022-09-01T06:36:36.635Z,17.80
2022-09-01T06:39:03.818Z,17.50
2022-09-01T06:41:31.544Z,17.30
2022-09-01T06:44:01.932Z,17.10
2022-09-01T06:46:28.879Z,17.00
2022-09-01T06:48:58.852Z,17.00
2022-09-01T06:51:28.659Z,17.10
2022-09-01T06:53:59.655Z,17.20
2022-09-01T06:59:16.902Z,17.20
2022-09-01T07:01:43.656Z,17.30
2022-09-01T07:04:13.604Z,17.20
2022-09-01T07:09:47.027Z,17.10
2022-09-01T07:12:30.932Z,17.00
2022-09-01T07:17:50.136Z,16.80
2022-09-01T07:20:25.301Z,16.80
2022-09-01T07:23:08.909Z,16.90
2022-09-01T07:28:36.023Z,17.00
2022-09-01T07:33:54.357Z,17.30
2022-09-01T07:36:28.994Z,17.40
2022-09-01T07:39:57.604Z,17.20
2022-09-01T07:42:56.719Z,16.90
2022-09-01T07:44:29.564Z,18.10
2022-09-01T07:52:31.467Z,19.50
2022-09-01T07:54:58.276Z,20.30
2022-09-01T07:57:24.957Z,20.60
2022-09-01T07:59:53.888Z,20.80
2022-09-01T08:02:20.581Z,20.90
2022-09-01T08:04:48.192Z,20.80
2022-09-01T08:07:15.725Z,20.60
2022-09-01T08:09:44.129Z,20.50
2022-09-01T08:12:11.360Z,20.30
2022-09-01T08:14:38.386Z,20.30
2022-09-01T08:17:54.437Z,20.10
2022-09-01T08:20:21.104Z,20.10
2022-09-01T08:22:47.748Z,20.00
2022-09-01T08:25:15.623Z,20.10
2022-09-01T08:27:42.612Z,20.10
2022-09-01T08:30:11.096Z,20.10
2022-09-01T08:32:37.994Z,20.30
2022-09-01T08:35:04.989Z,20.40
2022-09-01T08:37:31.666Z,20.40
2022-09-01T08:39:58.375Z,20.50
2022-09-01T08:42:31.823Z,20.50
2022-09-01T08:45:05.923Z,20.50
2022-09-01T08:47:49.196Z,20.50
2022-09-01T08:50:20.586Z,20.50
2022-09-01T08:52:55.334Z,20.50
2022-09-01T08:55:28.210Z,20.60
2022-09-01T08:57:59.916Z,20.60
2022-09-01T09:00:36.963Z,20.30
2022-09-01T09:03:20.989Z,20.30
2022-09-01T09:06:14.033Z,20.20
2022-09-01T09:08:43.662Z,20.20
2022-09-01T09:11:22.555Z,20.10
2022-09-01T09:13:55.424Z,20.10
2022-09-01T09:16:24.133Z,20.10
2022-09-01T09:18:59.750Z,20.30
2022-09-01T09:21:35.106Z,20.50
2022-09-01T09:24:22.495Z,20.70
2022-09-01T09:26:50.487Z,20.80
2022-09-01T09:29:18.641Z,20.80
2022-09-01T09:31:51.489Z,21.00
2022-09-01T09:34:32.756Z,21.10
2022-09-01T09:37:18.215Z,21.30
2022-09-01T09:39:45.204Z,21.50
2022-09-01T09:42:13.494Z,21.70
2022-09-01T09:44:44.625Z,21.80
2022-09-01T09:47:43.030Z,21.60
2022-09-01T09:50:10.966Z,21.60
2022-09-01T09:52:38.043Z,21.60
2022-09-01T09:55:06.382Z,21.70
2022-09-01T09:57:38.647Z,21.70
2022-09-01T10:00:18.308Z,21.60
2022-09-01T10:02:46.025Z,21.70
2022-09-01T10:05:19.215Z,21.90
2022-09-01T10:07:45.861Z,22.40
2022-09-01T10:10:24.838Z,22.70
2022-09-01T10:12:53.371Z,22.70
2022-09-01T10:15:21.444Z,23.00
2022-09-01T10:17:49.266Z,23.30
2022-09-01T10:20:18.673Z,23.90
2022-09-01T10:22:48.346Z,24.70
2022-09-01T10:25:21.960Z,25.50
2022-09-01T10:27:55.030Z,26.40
2022-09-01T10:30:22.302Z,26.70
2022-09-01T10:32:55.346Z,26.40
2022-09-01T10:35:30.033Z,25.50
2022-09-01T10:37:59.365Z,24.40
2022-09-01T10:40:31.609Z,23.40
2022-09-01T10:43:00.208Z,23.10
2022-09-01T10:45:30.368Z,23.40
2022-09-01T10:48:30.323Z,23.60
2022-09-01T10:51:18.275Z,24.10
2022-09-01T10:53:55.156Z,25.00
2022-09-01T10:56:35.462Z,25.30
2022-09-01T11:02:23.055Z,24.50
2022-09-01T11:04:45.593Z,24.00
2022-09-01T11:07:44.234Z,24.00
2022-09-01T11:10:31.430Z,24.30
2022-09-01T11:12:59.271Z,24.60
2022-09-01T11:15:35.432Z,24.80
2022-09-01T11:18:02.990Z,24.80
2022-09-01T11:20:31.661Z,24.80
2022-09-01T11:23:12.525Z,24.80
2022-09-01T11:25:39.636Z,24.70
2022-09-01T11:28:09.638Z,24.60
2022-09-01T11:30:55.125Z,24.70
2022-09-01T11:33:40.814Z,24.70
2022-09-01T11:36:28.641Z,24.70
2022-09-01T11:39:07.679Z,24.70
2022-09-01T11:41:57.420Z,24.70
2022-09-01T11:44:30.850Z,24.80
2022-09-01T11:47:09.645Z,24.80
2022-09-01T11:49:46.604Z,24.60
2022-09-01T11:52:17.030Z,24.10
2022-09-01T11:54:46.492Z,23.60
2022-09-01T11:57:21.585Z,23.40
2022-09-01T11:59:48.447Z,23.30
2022-09-01T12:02:19.442Z,23.30
2022-09-01T12:04:46.387Z,23.10
2022-09-01T12:07:23.192Z,22.80
2022-09-01T12:09:49.902Z,22.40
2022-09-01T12:12:42.962Z,22.00
2022-09-01T12:15:18.913Z,21.70
2022-09-01T12:17:46.443Z,21.50
2022-09-01T12:20:29.626Z,21.40
2022-09-01T12:22:58.001Z,21.30
2022-09-01T12:25:26.541Z,21.30
2022-09-01T12:27:53.661Z,21.10
2022-09-01T12:30:20.508Z,21.20
2022-09-01T12:32:47.403Z,21.30
2022-09-01T12:35:18.079Z,21.60
2022-09-01T12:37:45.001Z,21.90
2022-09-01T12:40:22.252Z,22.20
2022-09-01T12:42:50.412Z,22.50
2022-09-01T12:45:36.142Z,22.60
2022-09-01T12:48:02.999Z,22.60
2022-09-01T12:50:29.972Z,22.50
2022-09-01T12:53:02.002Z,22.40
2022-09-01T12:58:21.306Z,22.10
2022-09-01T13:01:17.076Z,22.10
2022-09-01T13:04:03.817Z,22.00
2022-09-01T13:06:30.480Z,21.90
2022-09-01T13:08:57.149Z,21.90
2022-09-01T13:11:24.099Z,22.00
2022-09-01T13:13:51.043Z,22.20
2022-09-01T13:16:17.693Z,22.40
2022-09-01T13:21:32.119Z,22.40
2022-09-01T13:23:58.881Z,22.10
2022-09-01T13:26:26.299Z,21.90
2022-09-01T13:28:53.785Z,21.70
2022-09-01T13:31:36.043Z,21.40
2022-09-01T13:34:10.863Z,21.20
2022-09-01T13:36:49.787Z,21.00
2022-09-01T13:39:19.010Z,20.90
2022-09-01T13:41:47.409Z,20.70
2022-09-01T13:44:14.223Z,20.70
2022-09-01T13:50:04.956Z,20.80
2022-09-01T13:52:15.168Z,20.80
2022-09-01T13:54:44.225Z,20.80
2022-09-01T13:57:11.705Z,20.80
2022-09-01T13:59:38.829Z,20.80
2022-09-01T14:02:05.735Z,20.80
2022-09-01T14:04:32.565Z,20.70
2022-09-01T14:06:59.728Z,20.70
2022-09-01T14:09:26.434Z,20.70
2022-09-01T14:11:54.084Z,20.80
2022-09-01T14:14:21.151Z,20.70
2022-09-01T14:16:47.912Z,20.70
2022-09-01T14:19:15.733Z,20.50
2022-09-01T14:21:44.263Z,20.40
2022-09-01T14:24:12.521Z,20.30
2022-09-01T14:26:40.713Z,20.20
2022-09-01T14:29:08.110Z,20.10
2022-09-01T14:31:36.236Z,20.10
2022-09-01T14:34:03.970Z,20.00
2022-09-01T14:36:31.293Z,20.00
2022-09-01T14:38:58.627Z,20.00
2022-09-01T14:41:26.844Z,20.00
2022-09-01T14:43:57.545Z,20.00
2022-09-01T14:46:25.469Z,20.00
2022-09-01T14:48:52.296Z,20.00
2022-09-01T14:51:22.408Z,20.00
2022-09-01T14:53:49.728Z,20.00
2022-09-01T14:56:18.307Z,20.00
2022-09-01T14:58:47.122Z,20.00
2022-09-01T15:01:33.639Z,20.00
2022-09-01T15:04:01.651Z,20.00
2022-09-01T15:06:28.444Z,20.00
2022-09-01T15:08:55.203Z,20.00
2022-09-01T15:11:21.984Z,20.00
2022-09-01T15:13:52.548Z,19.90
2022-09-01T15:16:20.848Z,19.90
2022-09-01T15:18:47.550Z,19.90
2022-09-01T15:21:25.343Z,19.90
2022-09-01T15:23:54.113Z,19.90
2022-09-01T15:26:21.377Z,19.80
2022-09-01T15:28:48.488Z,19.80
2022-09-01T15:31:16.545Z,19.80
2022-09-01T15:33:43.711Z,19.80
2022-09-01T15:36:15.151Z,19.80
2022-09-01T15:38:41.977Z,19.80
2022-09-01T15:41:08.714Z,19.80
2022-09-01T15:43:35.742Z,19.80
2022-09-01T15:46:04.083Z,19.90
2022-09-01T15:48:30.796Z,19.90
2022-09-01T15:51:30.150Z,19.90
2022-09-01T15:53:58.731Z,19.90
2022-09-01T15:56:25.626Z,20.00
2022-09-01T15:59:07.508Z,20.00
2022-09-01T16:01:36.335Z,20.00
2022-09-01T16:04:04.087Z,19.90
2022-09-01T16:06:32.786Z,19.80
2022-09-01T16:08:59.695Z,19.70
2022-09-01T16:11:26.485Z,19.50
2022-09-01T16:13:54.111Z,19.40
2022-09-01T16:16:40.538Z,19.30
2022-09-01T16:19:07.700Z,19.20
2022-09-01T16:21:37.484Z,19.20
2022-09-01T16:24:09.043Z,19.20
2022-09-01T16:26:36.081Z,19.20
2022-09-01T16:29:07.716Z,19.10
2022-09-01T16:31:34.636Z,19.10
2022-09-01T16:34:13.973Z,19.10
2022-09-01T16:36:52.853Z,19.10
2022-09-01T16:39:33.635Z,19.10
2022-09-01T16:42:01.191Z,19.00
2022-09-01T16:44:30.915Z,19.00
2022-09-01T16:47:16.346Z,19.00
2022-09-01T16:49:51.258Z,18.90
2022-09-01T16:52:30.918Z,18.90
2022-09-01T16:55:12.714Z,18.90
2022-09-01T16:57:59.435Z,18.90
2022-09-01T17:00:30.954Z,18.80
2022-09-01T17:03:00.824Z,18.80
2022-09-01T17:05:31.152Z,18.70
2022-09-01T17:08:16.746Z,18.60
2022-09-01T17:10:50.602Z,18.60
2022-09-01T17:13:32.543Z,18.50
2022-09-01T17:16:05.880Z,18.50
2022-09-01T17:18:36.860Z,18.40
2022-09-01T17:21:23.767Z,18.40
2022-09-01T17:23:53.580Z,18.30
2022-09-01T17:26:23.474Z,18.20
2022-09-01T17:29:06.966Z,18.20
2022-09-01T17:31:49.232Z,18.10
2022-09-01T17:34:23.151Z,18.00
2022-09-01T17:36:49.761Z,18.00
2022-09-01T17:39:16.401Z,17.80
2022-09-01T17:41:53.987Z,17.80
2022-09-01T17:44:56.493Z,17.70
2022-09-01T17:47:23.357Z,17.60
2022-09-01T17:49:53.128Z,17.50
2022-09-01T17:52:39.924Z,17.40
2022-09-01T17:55:11.243Z,17.30
2022-09-01T17:57:50.892Z,17.20
2022-09-01T18:00:25.518Z,17.10
2022-09-01T18:02:58.522Z,17.00
2022-09-01T18:05:26.429Z,16.90
2022-09-01T18:07:56.494Z,16.90
2022-09-01T18:10:28.249Z,16.80
2022-09-01T18:13:03.798Z,16.70
2022-09-01T18:15:39.087Z,16.70
2022-09-01T18:18:31.774Z,16.60
2022-09-01T18:21:02.423Z,16.60
2022-09-01T18:23:30.707Z,16.50
2022-09-01T18:26:02.744Z,16.40
2022-09-01T18:28:29.384Z,16.40
2022-09-01T18:31:00.918Z,16.30
2022-09-01T18:33:29.207Z,16.30
2022-09-01T18:36:03.863Z,16.20
2022-09-01T18:38:38.408Z,16.20
2022-09-01T18:41:23.712Z,16.10
2022-09-01T18:43:56.111Z,16.00
2022-09-01T18:46:34.220Z,16.00
2022-09-01T18:49:04.541Z,15.90
2022-09-01T18:51:51.272Z,15.90
2022-09-01T18:54:20.981Z,15.80
2022-09-01T18:57:01.503Z,15.70
2022-09-01T18:59:49.855Z,15.60
2022-09-01T19:02:31.714Z,15.60
2022-09-01T19:04:59.823Z,15.50
2022-09-01T19:07:31.434Z,15.40
2022-09-01T19:10:07.375Z,15.40
2022-09-01T19:12:37.116Z,15.30
2022-09-01T19:15:05.433Z,15.20
2022-09-01T19:17:43.136Z,15.20
2022-09-01T19:20:18.875Z,15.10
2022-09-01T19:22:58.391Z,15.10
2022-09-01T19:25:34.036Z,15.00
2022-09-01T19:28:20.495Z,14.90
2022-09-01T19:30:51.790Z,14.90
2022-09-01T19:33:21.492Z,14.80
2022-09-01T19:35:50.974Z,14.70
2022-09-01T19:38:20.863Z,14.70
2022-09-01T19:40:49.752Z,14.60
2022-09-01T19:43:18.162Z,14.50
2022-09-01T19:46:00.514Z,14.40
2022-09-01T19:48:37.698Z,14.30
2022-09-01T19:51:13.665Z,14.20
2022-09-01T19:53:40.303Z,14.00
2022-09-01T19:56:07.356Z,13.90
2022-09-01T19:58:42.852Z,13.90
2022-09-01T20:01:11.323Z,13.80
2022-09-01T20:03:44.831Z,13.70
2022-09-01T20:06:31.904Z,13.60
2022-09-01T20:09:11.745Z,13.60
2022-09-01T20:11:47.238Z,13.60
2022-09-01T20:14:20.277Z,13.60
2022-09-01T20:16:48.964Z,13.60
2022-09-01T20:19:18.491Z,13.60
2022-09-01T20:21:46.451Z,13.70
2022-09-01T20:24:16.116Z,13.70
2022-09-01T20:27:18.316Z,13.70
2022-09-01T20:29:44.955Z,13.70
2022-09-01T20:32:12.699Z,13.70
2022-09-01T20:34:42.351Z,13.70
2022-09-01T20:37:13.783Z,13.70
2022-09-01T20:40:01.605Z,13.70
2022-09-01T20:42:38.307Z,13.70
2022-09-01T20:45:08.140Z,13.70
2022-09-01T20:47:34.846Z,13.70
2022-09-01T20:50:02.731Z,13.70
2022-09-01T20:52:29.423Z,13.70
2022-09-01T20:55:08.324Z,13.70
2022-09-01T20:57:44.235Z,13.70
2022-09-01T21:00:22.810Z,13.60
2022-09-01T21:03:18.844Z,13.60
2022-09-01T21:05:59.799Z,13.60
2022-09-01T21:08:37.054Z,13.50
2022-09-01T21:11:13.528Z,13.50
2022-09-01T21:13:40.299Z,13.40
2022-09-01T21:16:18.845Z,13.40
2022-09-01T21:19:00.139Z,13.30
2022-09-01T21:21:35.936Z,13.30
2022-09-01T21:24:03.815Z,13.20
2022-09-01T21:26:30.714Z,13.20
2022-09-01T21:28:58.399Z,13.20
2022-09-01T21:31:25.131Z,13.10
2022-09-01T21:33:51.999Z,13.10
2022-09-01T21:36:18.715Z,13.00
2022-09-01T21:38:45.426Z,13.00
2022-09-01T21:41:13.280Z,13.00
2022-09-01T21:43:41.674Z,12.90
2022-09-01T21:46:09.055Z,12.90
2022-09-01T21:48:35.874Z,12.90
2022-09-01T21:51:05.600Z,12.80
2022-09-01T21:53:32.785Z,12.80
2022-09-01T21:55:59.646Z,12.70
2022-09-01T21:58:26.308Z,12.70
2022-09-01T22:00:53.042Z,12.70
2022-09-01T22:03:20.244Z,12.60
2022-09-01T22:05:46.923Z,12.60
2022-09-01T22:08:14.519Z,12.60
2022-09-01T22:10:45.496Z,12.50
2022-09-01T22:13:12.674Z,12.50
2022-09-01T22:15:43.723Z,12.50
2022-09-01T22:18:10.513Z,12.40
2022-09-01T22:20:37.572Z,12.40
2022-09-01T22:23:04.302Z,12.30
2022-09-01T22:25:32.549Z,12.20
2022-09-01T22:28:00.273Z,12.10
2022-09-01T22:30:26.999Z,12.10
2022-09-01T22:32:53.984Z,12.10
2022-09-01T22:35:20.829Z,12.00
2022-09-01T22:37:47.921Z,12.00
2022-09-01T22:40:15.672Z,11.90
2022-09-01T22:42:43.055Z,11.90
2022-09-01T22:45:10.569Z,11.80
2022-09-01T22:47:38.524Z,11.70
2022-09-01T22:50:06.210Z,11.70
2022-09-01T22:52:32.899Z,11.60
2022-09-01T22:54:59.544Z,11.60
2022-09-01T22:57:26.221Z,11.60
2022-09-01T22:59:52.872Z,11.50
2022-09-01T23:02:21.051Z,11.50
2022-09-01T23:04:47.838Z,11.50
2022-09-01T23:09:42.418Z,11.40
2022-09-01T23:12:09.128Z,11.40
2022-09-01T23:14:35.794Z,11.40
2022-09-01T23:17:02.515Z,11.30
2022-09-01T23:19:29.189Z,11.30
2022-09-01T23:21:55.912Z,11.20
2022-09-01T23:24:22.817Z,11.20
2022-09-01T23:26:49.673Z,11.20
2022-09-01T23:29:16.567Z,11.10
2022-09-01T23:31:44.268Z,11.10
2022-09-01T23:34:13.199Z,11.10
2022-09-01T23:36:40.382Z,11.10
2022-09-01T23:39:07.164Z,11.10
2022-09-01T23:41:34.877Z,11.10
2022-09-01T23:44:03.627Z,11.10
2022-09-01T23:46:31.970Z,11.00
2022-09-01T23:48:59.155Z,11.00
2022-09-01T23:51:25.957Z,11.00
2022-09-01T23:53:53.099Z,10.90
2022-09-01T23:56:21.441Z,10.90
2022-09-01T23:58:48.971Z,10.90
